Time;durP1;ratioP1;P1;durP2;ratioP2;P2;SDS_P1;SDS_P2;PMS_P1;PMS_P2;Temp;Humidity;BMP_temperature;BMP_pressure;BME280_temperature;BME280_humidity;BME280_pressure;Samples;Min_cycle;Max_cycle;Signal;HPM_P1;HPM_P2
2022/10/10 00:00:42;;;;;;;3.43;3.13;;;;;;;10.66;100.00;95601.50;4311575;33;20194;-63
2022/10/10 00:03:09;;;;;;;2.70;2.53;;;;;;;10.70;100.00;95597.19;4312320;33;20194;-63
2022/10/10 00:05:38;;;;;;;3.57;3.30;;;;;;;10.73;100.00;95599.28;4267788;33;20178;-63
2022/10/10 00:08:06;;;;;;;4.57;4.23;;;;;;;10.73;100.00;95595.84;4282066;33;20200;-63
2022/10/10 00:10:32;;;;;;;3.67;3.37;;;;;;;10.68;100.00;95594.81;4311706;33;20189;-63
2022/10/10 00:12:59;;;;;;;3.93;3.63;;;;;;;10.75;100.00;95594.47;4328514;32;20181;-63
2022/10/10 00:15:24;;;;;;;4.03;3.73;;;;;;;10.93;100.00;95593.69;4321629;32;20185;-63
2022/10/10 00:17:54;;;;;;;3.60;3.40;;;;;;;10.97;100.00;95592.03;4342669;32;20204;-63
2022/10/10 00:20:21;;;;;;;3.03;2.93;;;;;;;10.98;100.00;95583.00;4324373;32;20189;-63
2022/10/10 00:22:48;;;;;;;4.00;3.70;;;;;;;10.99;100.00;95595.19;4335548;32;20189;-63
2022/10/10 00:25:14;;;;;;;3.23;2.80;;;;;;;11.16;100.00;95585.91;4293579;33;20203;-64
2022/10/10 00:27:40;;;;;;;4.00;3.70;;;;;;;11.01;100.00;95590.34;4323740;32;20198;-65
2022/10/10 00:30:07;;;;;;;3.83;3.53;;;;;;;10.99;100.00;95595.19;4294891;33;20205;-63
2022/10/10 00:32:54;;;;;;;3.33;3.13;;;;;;;11.09;100.00;95585.47;4305035;33;20208;-63
2022/10/10 00:35:20;;;;;;;3.37;3.17;;;;;;;11.05;100.00;95585.25;4329001;32;20189;-63
2022/10/10 00:37:46;;;;;;;4.13;3.83;;;;;;;10.97;100.00;95592.03;4326098;32;20243;-63
2022/10/10 00:40:13;;;;;;;3.20;3.00;;;;;;;10.95;100.00;95588.87;4320941;33;20200;-63
2022/10/10 00:42:41;;;;;;;4.57;4.23;;;;;;;10.79;100.00;95590.19;4319856;32;20204;-63
2022/10/10 00:45:24;;;;;;;9.20;3.93;;;;;;;11.03;100.00;95590.84;4335681;32;20189;-63
2022/10/10 00:48:12;;;;;;;3.90;3.60;;;;;;;11.08;100.00;95582.03;4323658;32;20189;-63
2022/10/10 00:51:00;;;;;;;3.63;3.33;;;;;;;11.16;100.00;95584.03;4312769;33;20193;-63
2022/10/10 00:53:35;;;;;;;5.27;3.83;;;;;;;11.25;100.00;95581.50;4303684;33;20261;-62
2022/10/10 00:56:03;;;;;;;3.83;3.53;;;;;;;11.38;100.00;95572.00;4322234;32;20269;-62
2022/10/10 00:58:35;;;;;;;4.43;3.27;;;;;;;11.41;100.00;95574.88;4307373;33;20201;-62
2022/10/10 01:01:02;;;;;;;4.20;4.00;;;;;;;11.41;100.00;95572.22;4324252;33;20299;-62
2022/10/10 01:03:30;;;;;;;3.20;2.93;;;;;;;11.41;100.00;95574.88;4316001;32;20260;-62
2022/10/10 01:05:56;;;;;;;3.20;3.10;;;;;;;11.35;100.00;95576.03;4314202;33;20280;-62
2022/10/10 01:08:26;;;;;;;4.77;4.47;;;;;;;11.45;100.00;95581.16;4322729;32;20182;-62
2022/10/10 01:11:19;;;;;;;2.97;2.77;;;;;;;11.48;100.00;95574.47;4325460;32;20194;-63
2022/10/10 01:13:48;;;;;;;3.00;2.90;;;;;;;11.42;100.00;95567.69;4332203;32;20189;-63
2022/10/10 01:16:24;;;;;;;4.43;4.03;;;;;;;11.53;100.00;95569.88;4328694;32;20201;-63
2022/10/10 01:19:12;;;;;;;4.67;4.27;;;;;;;11.57;100.00;95564.75;4308243;32;20190;-62
2022/10/10 01:21:41;;;;;;;4.70;4.37;;;;;;;11.44;100.00;95560.97;4331372;32;20189;-62
2022/10/10 01:24:44;;;;;;;5.03;4.27;;;;;;;11.46;100.00;95563.34;4330154;32;20198;-62
2022/10/10 01:27:25;;;;;;;4.83;4.27;;;;;;;11.57;100.00;95564.75;4320887;33;20292;-64
2022/10/10 01:30:14;;;;;;;2.87;2.77;;;;;;;11.55;100.00;95562.38;4332372;32;20208;-62
2022/10/10 01:33:15;;;;;;;3.73;3.53;;;;;;;11.48;100.00;95558.53;4308943;33;20297;-62
2022/10/10 01:36:18;;;;;;;4.47;3.80;;;;;;;11.48;100.00;95553.22;4321678;33;20189;-64
2022/10/10 01:39:21;;;;;;;5.00;4.50;;;;;;;11.67;100.00;95560.03;4303492;32;20268;-64
2022/10/10 01:42:05;;;;;;;5.33;4.93;;;;;;;11.53;100.00;95556.56;4316475;33;20203;-62
2022/10/10 01:44:31;;;;;;;4.70;4.40;;;;;;;11.64;100.00;95568.59;4317925;32;20275;-62
2022/10/10 01:46:57;;;;;;;4.07;3.77;;;;;;;11.55;100.00;95559.72;4331184;32;20194;-63
2022/10/10 01:49:29;;;;;;;4.70;4.33;;;;;;;11.53;100.00;95567.19;4340232;32;20205;-62
2022/10/10 01:52:26;;;;;;;4.40;4.10;;;;;;;11.52;100.00;95576.25;4283924;33;20195;-62
2022/10/10 01:55:17;;;;;;;3.63;3.40;;;;;;;11.60;100.00;95559.66;4320793;32;20201;-62
2022/10/10 01:58:19;;;;;;;3.80;3.60;;;;;;;11.66;100.00;95565.63;4340806;32;20193;-62
2022/10/10 02:01:08;;;;;;;16.40;3.57;;;;;;;11.57;100.00;95559.44;4300219;33;20248;-63
2022/10/10 02:03:41;;;;;;;4.50;4.20;;;;;;;11.55;100.00;95565.03;4320112;32;20204;-62
2022/10/10 02:06:39;;;;;;;5.57;3.93;;;;;;;11.53;100.00;95567.19;4326428;32;20216;-63
2022/10/10 02:09:14;;;;;;;3.27;3.07;;;;;;;11.52;100.00;95565.63;4322678;32;20205;-63
2022/10/10 02:11:41;;;;;;;6.10;4.03;;;;;;;11.59;100.00;95559.94;4311830;33;20209;-62
2022/10/10 02:14:36;;;;;;;3.73;3.53;;;;;;;11.52;100.00;95560.31;4284204;32;20228;-63
2022/10/10 02:17:07;;;;;;;2.40;2.30;;;;;;;11.60;100.00;95562.31;4320936;33;20213;-62
2022/10/10 02:19:40;;;;;;;2.93;2.77;;;;;;;11.47;100.00;95552.44;4313178;32;20197;-62
2022/10/10 02:22:09;;;;;;;3.00;2.80;;;;;;;11.50;100.00;95556.38;4340189;32;20235;-63
2022/10/10 02:24:35;;;;;;;3.77;3.57;;;;;;;11.56;100.00;95557.87;4329869;32;20190;-63
2022/10/10 02:27:24;;;;;;;4.80;4.50;;;;;;;11.49;100.00;95560.09;4330704;32;20185;-63
2022/10/10 02:29:57;;;;;;;4.27;3.97;;;;;;;11.40;100.00;95552.03;4317147;33;20201;-62
2022/10/10 02:32:45;;;;;;;3.77;3.47;;;;;;;11.47;100.00;95557.75;4321208;33;20233;-62
2022/10/10 02:35:17;;;;;;;4.23;3.80;;;;;;;11.38;100.00;95561.38;4289474;33;20244;-63
2022/10/10 02:37:44;;;;;;;4.10;3.80;;;;;;;11.39;100.00;95563.75;4318912;32;20190;-63
2022/10/10 02:40:15;;;;;;;5.03;4.23;;;;;;;11.39;100.00;95557.63;4281071;33;20194;-62
2022/10/10 02:42:43;;;;;;;3.60;3.40;;;;;;;11.30;100.00;95563.59;4326072;32;20236;-63
2022/10/10 02:45:14;;;;;;;3.50;3.30;;;;;;;11.43;100.00;95564.72;4302210;33;20198;-63
2022/10/10 02:47:44;;;;;;;3.53;3.37;;;;;;;11.39;100.00;95568.25;4311493;33;20197;-63
2022/10/10 02:50:12;;;;;;;3.33;3.20;;;;;;;11.33;100.00;95567.56;4329358;32;20186;-62
2022/10/10 02:52:44;;;;;;;4.43;4.13;;;;;;;11.36;100.00;95567.75;4310173;32;20178;-63
2022/10/10 02:55:14;;;;;;;5.33;4.57;;;;;;;11.35;100.00;95566.19;4310393;33;20260;-65
2022/10/10 02:57:42;;;;;;;3.33;3.10;;;;;;;11.32;100.00;95560.66;4321580;32;20252;-62
2022/10/10 03:00:12;;;;;;;4.77;3.80;;;;;;;11.31;100.00;95567.06;4328466;32;20204;-62
2022/10/10 03:02:42;;;;;;;3.40;3.20;;;;;;;11.33;100.00;95557.72;4326834;33;20198;-62
2022/10/10 03:05:09;;;;;;;4.07;3.77;;;;;;;11.32;100.00;95560.66;4328275;33;20206;-62
2022/10/10 03:07:35;;;;;;;3.97;3.67;;;;;;;11.50;100.00;95561.69;4326833;32;20182;-62
2022/10/10 03:10:03;;;;;;;4.37;3.70;;;;;;;11.56;100.00;95560.53;4329029;32;20252;-62
2022/10/10 03:12:29;;;;;;;4.17;3.87;;;;;;;11.58;100.00;95569.78;4284808;33;20256;-62
2022/10/10 03:14:56;;;;;;;2.97;2.87;;;;;;;11.62;100.00;95568.13;4302652;33;20225;-62
2022/10/10 03:17:23;;;;;;;3.93;3.73;;;;;;;11.70;100.00;95569.28;4314929;33;20193;-63
2022/10/10 03:19:49;;;;;;;2.33;2.23;;;;;;;11.88;100.00;95570.31;4329936;32;20189;-62
2022/10/10 03:22:17;;;;;;;4.77;4.43;;;;;;;11.91;100.00;95575.84;4329614;32;20225;-62
2022/10/10 03:24:43;;;;;;;4.27;3.87;;;;;;;11.76;100.00;95570.81;4324593;32;20213;-63
2022/10/10 03:27:08;;;;;;;4.03;3.73;;;;;;;11.84;100.00;95567.47;4316856;32;20193;-63
2022/10/10 03:29:34;;;;;;;2.77;2.37;;;;;;;12.01;100.00;95570.34;4327685;32;20217;-62
2022/10/10 03:32:01;;;;;;;4.23;4.03;;;;;;;12.02;100.00;95573.78;4318499;33;21700;-63
2022/10/10 03:34:31;;;;;;;4.27;4.00;;;;;;;11.95;100.00;95568.84;4314080;32;20229;-62
2022/10/10 03:36:56;;;;;;;2.93;2.83;;;;;;;11.82;100.00;95566.97;4321091;32;20295;-62
2022/10/10 03:39:23;;;;;;;3.20;3.00;;;;;;;11.61;100.00;95568.41;4316845;33;20182;-62
2022/10/10 03:41:49;;;;;;;4.33;3.43;;;;;;;11.58;100.00;95561.81;4328715;32;20181;-63
2022/10/10 03:44:16;;;;;;;7.87;4.77;;;;;;;11.41;100.00;95566.91;4329009;32;20216;-62
2022/10/10 03:46:43;;;;;;;3.23;2.93;;;;;;;11.39;100.00;95560.28;4325313;32;20181;-63
2022/10/10 03:49:10;;;;;;;3.10;2.97;;;;;;;11.56;100.00;95563.97;4328557;32;20245;-62
2022/10/10 03:51:37;;;;;;;3.20;3.00;;;;;;;11.58;100.00;95559.16;4337143;32;20268;-62
2022/10/10 03:54:05;;;;;;;2.70;2.60;;;;;;;11.77;100.00;95576.91;4326196;32;20234;-62
2022/10/10 03:56:32;;;;;;;2.67;1.97;;;;;;;11.82;100.00;95574.16;4295506;32;20265;-62
2022/10/10 03:58:59;;;;;;;2.73;2.60;;;;;;;11.71;100.00;95566.34;4296983;33;20194;-62
2022/10/10 04:01:26;;;;;;;2.17;2.07;;;;;;;11.82;100.00;95569.66;4312972;33;20260;-62
2022/10/10 04:03:54;;;;;;;2.70;2.60;;;;;;;11.90;100.00;95568.16;4296067;33;20190;-62
2022/10/10 04:06:20;;;;;;;3.67;3.47;;;;;;;11.94;100.00;95561.97;4314527;32;20245;-62
2022/10/10 04:08:47;;;;;;;2.60;2.50;;;;;;;12.07;100.00;95572.87;4332307;32;20241;-62
2022/10/10 04:11:12;;;;;;;3.67;3.47;;;;;;;12.09;100.00;95570.72;4326965;32;20252;-63
2022/10/10 04:13:39;;;;;;;2.30;2.20;;;;;;;12.04;100.00;95566.31;4329082;32;20185;-62
2022/10/10 04:16:06;;;;;;;2.27;2.17;;;;;;;11.92;100.00;95568.66;4332861;32;20189;-62
2022/10/10 04:18:31;;;;;;;1.97;1.87;;;;;;;11.95;100.00;95565.41;4313340;32;20235;-62
2022/10/10 04:21:03;;;;;;;1.73;1.73;;;;;;;12.01;100.00;95573.00;4291616;33;20198;-62
2022/10/10 04:23:30;;;;;;;2.27;2.10;;;;;;;12.00;100.00;95567.97;4323088;32;20240;-63
2022/10/10 04:25:58;;;;;;;3.13;2.67;;;;;;;11.90;100.00;95570.81;4329999;32;20267;-63
2022/10/10 04:28:23;;;;;;;2.57;2.33;;;;;;;12.01;100.00;95562.34;4315641;32;20193;-63
2022/10/10 04:30:50;;;;;;;1.40;1.40;;;;;;;12.04;99.67;95568.97;4328924;33;20249;-63
2022/10/10 04:33:15;;;;;;;2.23;2.13;;;;;;;11.88;100.00;95568.44;4313472;33;20240;-62
2022/10/10 04:36:04;;;;;;;1.37;1.37;;;;;;;11.80;100.00;95571.00;4321477;32;20181;-63
2022/10/10 04:38:31;;;;;;;2.37;2.27;;;;;;;11.96;99.53;95569.62;4333604;32;22734;-62
2022/10/10 04:40:58;;;;;;;1.47;1.33;;;;;;;12.00;98.80;95566.09;4307462;33;20304;-62
2022/10/10 04:43:23;;;;;;;2.00;1.90;;;;;;;11.89;98.84;95567.38;4308339;33;20243;-62
2022/10/10 04:45:50;;;;;;;1.73;1.73;;;;;;;11.83;98.71;95565.13;4312745;32;20236;-62
2022/10/10 04:48:17;;;;;;;1.70;1.63;;;;;;;11.85;98.67;95560.25;4311566;33;20278;-63
2022/10/10 04:50:43;;;;;;;1.77;1.67;;;;;;;11.81;98.89;95559.31;4329302;33;20194;-62
2022/10/10 04:53:08;;;;;;;1.83;1.73;;;;;;;11.66;99.59;95560.31;4341925;32;20224;-62
2022/10/10 04:55:35;;;;;;;1.40;1.30;;;;;;;11.48;99.95;95556.66;4312801;32;20208;-62
2022/10/10 04:58:01;;;;;;;1.50;1.40;;;;;;;11.27;100.00;95561.53;4326550;32;20269;-62
2022/10/10 05:00:30;;;;;;;2.03;1.93;;;;;;;11.43;100.00;95561.28;4315025;33;20212;-62
2022/10/10 05:02:57;;;;;;;2.57;2.37;;;;;;;11.53;100.00;95558.44;4329979;32;20208;-62
2022/10/10 05:05:26;;;;;;;2.10;1.93;;;;;;;11.56;100.00;95565.84;4314523;33;20221;-62
2022/10/10 05:07:52;;;;;;;3.87;2.87;;;;;;;11.54;99.98;95560.81;4318513;33;20185;-63
2022/10/10 05:10:20;;;;;;;2.07;1.87;;;;;;;11.61;99.65;95563.88;4321731;33;20288;-63
2022/10/10 05:12:47;;;;;;;2.70;2.17;;;;;;;11.46;100.00;95564.13;4312037;33;20240;-63
2022/10/10 05:15:14;;;;;;;1.97;1.87;;;;;;;11.38;100.00;95570.13;4309710;32;20190;-63
2022/10/10 05:17:40;;;;;;;2.53;2.33;;;;;;;11.35;100.00;95566.19;4338057;32;20190;-64
2022/10/10 05:20:07;;;;;;;1.10;1.10;;;;;;;11.23;100.00;95570.38;4292496;33;20190;-62
2022/10/10 05:22:34;;;;;;;1.67;1.67;;;;;;;11.21;100.00;95568.03;4310201;32;20201;-62
2022/10/10 05:25:00;;;;;;;1.50;1.40;;;;;;;11.16;100.00;95572.63;4294932;33;20194;-63
2022/10/10 05:27:27;;;;;;;1.60;1.57;;;;;;;11.12;100.00;95575.06;4312796;32;20284;-63
2022/10/10 05:30:00;;;;;;;1.97;1.87;;;;;;;11.17;100.00;95568.88;4315588;32;20213;-62
2022/10/10 05:32:27;;;;;;;1.63;1.63;;;;;;;11.07;100.00;95569.81;4329951;32;20205;-62
2022/10/10 05:34:53;;;;;;;1.30;1.30;;;;;;;11.24;100.00;95572.72;4337503;32;20216;-63
2022/10/10 05:37:23;;;;;;;0.97;0.97;;;;;;;11.27;99.55;95580.13;4329320;32;20212;-62
2022/10/10 05:39:49;;;;;;;1.43;1.40;;;;;;;11.29;99.71;95579.84;4307109;33;20248;-62
2022/10/10 05:42:17;;;;;;;1.00;1.00;;;;;;;11.16;99.80;95581.37;4333722;32;20182;-62
2022/10/10 05:44:44;;;;;;;1.37;1.37;;;;;;;11.17;99.83;95576.84;4313507;32;20197;-63
2022/10/10 05:47:09;;;;;;;1.43;1.33;;;;;;;11.15;99.74;95581.66;4324110;32;20251;-63
2022/10/10 05:49:36;;;;;;;2.30;1.93;;;;;;;11.11;100.00;95580.66;4343799;32;20209;-65
2022/10/10 05:52:04;;;;;;;2.50;1.83;;;;;;;11.87;100.00;95576.72;4331258;32;20220;-65
2022/10/10 05:54:29;;;;;;;1.03;1.03;;;;;;;12.12;100.00;95588.75;4332466;32;20240;-65
2022/10/10 05:56:55;;;;;;;2.40;1.67;;;;;;;12.31;100.00;95581.44;4287206;32;20190;-64
2022/10/10 05:59:22;;;;;;;1.33;1.27;;;;;;;12.27;100.00;95585.75;4316619;32;20190;-65
2022/10/10 06:01:48;;;;;;;1.37;1.27;;;;;;;12.41;100.00;95591.88;4328446;32;20202;-65
2022/10/10 06:04:18;;;;;;;1.30;1.20;;;;;;;12.43;100.00;95583.59;4318381;32;20264;-64
2022/10/10 06:06:43;;;;;;;1.53;1.43;;;;;;;12.48;100.00;95589.59;4329816;32;20212;-65
2022/10/10 06:09:12;;;;;;;1.50;1.40;;;;;;;12.72;100.00;95587.47;4333455;32;20186;-66
2022/10/10 06:11:39;;;;;;;1.53;1.50;;;;;;;12.60;98.12;95597.88;4308980;32;20297;-66
2022/10/10 06:14:06;;;;;;;4.93;1.30;;;;;;;12.91;100.00;95603.28;4312121;32;20181;-63
2022/10/10 06:16:33;;;;;;;1.87;1.77;;;;;;;13.03;100.00;95598.25;4327134;32;20280;-63
2022/10/10 06:19:03;;;;;;;2.00;1.90;;;;;;;13.01;100.00;95602.28;4344158;32;20196;-63
2022/10/10 06:21:30;;;;;;;1.77;1.67;;;;;;;13.17;100.00;95602.75;4346654;32;20185;-62
2022/10/10 06:23:57;;;;;;;1.20;1.20;;;;;;;12.50;96.42;95605.25;4305867;32;20689;-62
2022/10/10 06:26:24;;;;;;;0.63;0.63;;;;;;;12.60;94.48;95603.19;4342859;32;20194;-62
2022/10/10 06:28:52;;;;;;;1.10;1.10;;;;;;;12.20;95.31;95602.16;4338820;32;20185;-62
2022/10/10 06:31:18;;;;;;;1.03;1.03;;;;;;;12.27;95.05;95615.03;4344544;32;20252;-62
2022/10/10 06:33:48;;;;;;;1.50;1.50;;;;;;;12.20;94.89;95607.47;4340131;32;20184;-62
2022/10/10 06:36:17;;;;;;;1.03;1.00;;;;;;;12.16;95.40;95611.00;4334488;32;20177;-62
2022/10/10 06:38:44;;;;;;;0.70;0.70;;;;;;;12.14;95.50;95613.97;4341439;32;20256;-62
2022/10/10 06:41:12;;;;;;;0.60;0.60;;;;;;;12.26;94.94;95616.91;4280868;32;20183;-62
2022/10/10 06:43:40;;;;;;;0.83;0.83;;;;;;;12.27;95.41;95618.47;4315827;32;20232;-62
2022/10/10 06:46:10;;;;;;;1.27;1.20;;;;;;;12.20;96.11;95618.09;4313350;32;20198;-62
2022/10/10 06:48:37;;;;;;;3.47;1.90;;;;;;;12.13;96.51;95623.00;4346751;32;20222;-62
2022/10/10 06:51:09;;;;;;;2.33;1.97;;;;;;;12.23;96.46;95619.37;4288216;33;20256;-62
2022/10/10 06:53:36;;;;;;;1.20;1.20;;;;;;;12.20;96.75;95623.41;4311014;32;20199;-62
2022/10/10 06:56:04;;;;;;;1.53;1.43;;;;;;;12.02;97.60;95619.00;4346625;32;20197;-62
2022/10/10 06:58:31;;;;;;;0.93;0.93;;;;;;;12.25;97.14;95628.66;4327227;32;23548;-62
2022/10/10 07:01:00;;;;;;;0.90;0.90;;;;;;;12.27;96.81;95623.78;4319512;33;20221;-62
2022/10/10 07:03:28;;;;;;;2.20;1.33;;;;;;;12.41;96.30;95626.47;4286828;33;20193;-62
2022/10/10 07:05:58;;;;;;;1.10;1.10;;;;;;;12.47;96.20;95619.19;4303314;33;20252;-62
2022/10/10 07:08:25;;;;;;;1.23;1.23;;;;;;;12.27;96.50;95618.47;4253250;33;20233;-62
2022/10/10 07:10:56;;;;;;;1.03;1.03;;;;;;;12.35;96.29;95617.00;4296696;33;20204;-62
2022/10/10 07:13:22;;;;;;;1.73;1.63;;;;;;;12.51;95.66;95614.81;4310128;32;20189;-62
2022/10/10 07:15:49;;;;;;;2.33;2.13;;;;;;;12.39;95.58;95626.75;4324210;32;20197;-62
2022/10/10 07:18:21;;;;;;;1.27;1.20;;;;;;;12.43;95.72;95626.19;4344354;32;20205;-62
2022/10/10 07:20:48;;;;;;;1.27;1.27;;;;;;;12.60;95.46;95631.66;4314258;32;20299;-63
2022/10/10 07:23:16;;;;;;;1.00;1.00;;;;;;;12.63;94.87;95629.22;4323439;32;20177;-62
2022/10/10 07:25:45;;;;;;;0.50;0.50;;;;;;;12.53;94.77;95625.94;4318031;33;20205;-63
2022/10/10 07:28:11;;;;;;;1.60;1.50;;;;;;;12.62;94.73;95629.50;4327832;32;20212;-63
2022/10/10 07:30:47;;;;;;;0.70;0.70;;;;;;;12.68;94.59;95638.94;4307268;33;20193;-62
2022/10/10 07:33:13;;;;;;;0.93;0.93;;;;;;;12.63;94.33;95639.06;4312223;32;20215;-62
2022/10/10 07:35:39;;;;;;;0.73;0.73;;;;;;;12.64;94.91;95640.66;4324852;32;20214;-62
2022/10/10 07:38:07;;;;;;;1.03;1.03;;;;;;;12.75;94.67;95644.66;4270964;33;20363;-62
2022/10/10 07:40:33;;;;;;;0.63;0.63;;;;;;;12.96;93.55;95645.78;4276857;32;20211;-62
2022/10/10 07:43:01;;;;;;;0.70;0.70;;;;;;;12.93;93.74;95649.06;4318160;32;20201;-62
2022/10/10 07:45:28;;;;;;;0.50;0.50;;;;;;;13.16;93.25;95655.25;4328121;32;20192;-62
2022/10/10 07:47:54;;;;;;;1.23;1.23;;;;;;;13.19;92.83;95656.50;4323166;32;20197;-62
2022/10/10 07:50:23;;;;;;;0.77;0.77;;;;;;;13.41;91.98;95656.53;4313593;32;20189;-62
2022/10/10 07:52:54;;;;;;;1.73;0.97;;;;;;;13.40;92.18;95649.63;4327692;32;20212;-62
2022/10/10 07:55:21;;;;;;;0.93;0.90;;;;;;;13.54;91.45;95661.00;4303719;33;20198;-62
2022/10/10 07:57:50;;;;;;;3.03;0.60;;;;;;;13.70;90.88;95659.56;4333102;32;20558;-62
2022/10/10 08:00:20;;;;;;;1.73;0.77;;;;;;;13.60;91.19;95661.69;4336309;32;20185;-62
2022/10/10 08:02:47;;;;;;;0.40;0.40;;;;;;;13.76;90.65;95663.66;4335836;32;20204;-62
2022/10/10 08:05:14;;;;;;;7.10;1.17;;;;;;;13.70;91.34;95662.25;4323710;32;20208;-62
2022/10/10 08:07:41;;;;;;;0.60;0.60;;;;;;;13.88;90.38;95660.47;4289980;33;20202;-63
2022/10/10 08:10:08;;;;;;;0.73;0.73;;;;;;;14.03;89.56;95651.28;4294970;33;20235;-62
2022/10/10 08:12:39;;;;;;;0.80;0.80;;;;;;;14.07;89.95;95654.91;4334972;32;20232;-62
2022/10/10 08:15:08;;;;;;;3.50;0.87;;;;;;;14.16;89.92;95655.72;4303374;32;20249;-62
2022/10/10 08:17:34;;;;;;;0.50;0.50;;;;;;;14.16;90.68;95660.25;4315295;33;20190;-62
2022/10/10 08:20:00;;;;;;;0.40;0.40;;;;;;;14.21;90.43;95658.25;4341300;32;20190;-62
2022/10/10 08:22:28;;;;;;;0.77;0.77;;;;;;;14.32;89.73;95659.56;4300923;32;20204;-62
2022/10/10 08:24:55;;;;;;;1.30;1.13;;;;;;;14.36;89.48;95660.50;4299202;33;20194;-62
2022/10/10 08:27:23;;;;;;;1.10;1.10;;;;;;;14.37;89.83;95667.41;4326507;32;20193;-63
2022/10/10 08:29:50;;;;;;;0.70;0.70;;;;;;;14.40;89.91;95672.19;4328598;32;20240;-62
2022/10/10 08:32:17;;;;;;;0.67;0.67;;;;;;;14.43;89.61;95660.88;4333685;33;20242;-63
2022/10/10 08:34:42;;;;;;;0.57;0.57;;;;;;;14.41;89.65;95672.97;4314025;33;20190;-62
2022/10/10 08:37:12;;;;;;;0.77;0.77;;;;;;;14.42;89.30;95670.00;4333906;32;20230;-62
2022/10/10 08:39:39;;;;;;;0.67;0.67;;;;;;;14.43;89.09;95674.22;4291372;33;20190;-62
2022/10/10 08:42:05;;;;;;;1.13;1.07;;;;;;;14.47;88.99;95662.94;4321360;32;20205;-62
2022/10/10 08:44:50;;;;;;;10.30;5.50;;;;;;;14.53;88.83;95659.84;4329351;33;20264;-62
2022/10/10 08:47:46;;;;;;;8.63;6.23;;;;;;;14.63;88.84;95664.09;4329548;33;20201;-62
2022/10/10 08:50:27;;;;;;;2.40;2.30;;;;;;;14.61;88.93;95660.94;4334346;32;20181;-62
2022/10/10 08:53:05;;;;;;;2.37;1.97;;;;;;;14.65;88.92;95661.91;4334766;32;20238;-62
2022/10/10 08:55:34;;;;;;;2.33;1.97;;;;;;;14.76;88.59;95663.16;4321570;32;20203;-62
2022/10/10 08:58:33;;;;;;;1.00;1.00;;;;;;;14.81;89.06;95667.59;4341456;32;20204;-62
2022/10/10 09:01:10;;;;;;;8.67;1.27;;;;;;;14.84;88.64;95659.75;4325265;32;20208;-62
2022/10/10 09:03:54;;;;;;;1.73;1.47;;;;;;;14.88;88.22;95662.59;4346166;32;20207;-62
2022/10/10 09:06:43;;;;;;;0.90;0.90;;;;;;;14.87;87.90;95661.78;4346504;32;20261;-62
2022/10/10 09:09:28;;;;;;;0.60;0.60;;;;;;;14.92;87.49;95666.22;4339052;32;20182;-62
2022/10/10 09:12:32;;;;;;;0.77;0.77;;;;;;;14.94;86.38;95672.81;4328759;32;20189;-62
2022/10/10 09:15:23;;;;;;;1.07;1.03;;;;;;;14.98;85.97;95668.41;4302407;33;20236;-62
2022/10/10 09:18:25;;;;;;;1.30;1.23;;;;;;;15.02;86.23;95672.03;4310434;33;20193;-62
2022/10/10 09:21:25;;;;;;;1.03;1.03;;;;;;;15.23;85.27;95666.06;4332584;32;20207;-62
2022/10/10 09:24:09;;;;;;;1.00;1.00;;;;;;;15.20;84.91;95662.13;4329654;32;20189;-62
2022/10/10 09:26:45;;;;;;;1.17;0.93;;;;;;;15.25;84.61;95659.31;4323475;32;20188;-62
2022/10/10 09:29:29;;;;;;;1.43;1.40;;;;;;;15.35;84.55;95663.56;4325506;32;20193;-62
2022/10/10 09:32:05;;;;;;;1.67;1.03;;;;;;;15.41;84.94;95660.41;4341553;32;20200;-62
2022/10/10 09:34:38;;;;;;;2.20;1.70;;;;;;;15.52;84.37;95674.25;4289372;32;21730;-62
2022/10/10 09:37:14;;;;;;;0.90;0.90;;;;;;;15.60;84.45;95670.03;4315518;33;20280;-62
2022/10/10 09:39:47;;;;;;;1.90;0.90;;;;;;;15.70;84.53;95664.34;4298629;33;20198;-62
2022/10/10 09:42:23;;;;;;;0.77;0.53;;;;;;;15.75;84.29;95666.88;4328648;32;20200;-63
2022/10/10 09:44:51;;;;;;;0.70;0.70;;;;;;;15.76;84.50;95668.44;4324930;32;20250;-62
2022/10/10 09:47:21;;;;;;;1.23;1.20;;;;;;;15.84;84.15;95674.88;4341960;32;20196;-62
2022/10/10 09:49:47;;;;;;;3.23;3.03;;;;;;;15.93;84.47;95672.97;4295903;32;20209;-62
2022/10/10 09:52:26;;;;;;;1.60;1.30;;;;;;;15.96;84.21;95672.34;4337320;32;20231;-62
2022/10/10 09:55:06;;;;;;;0.70;0.70;;;;;;;16.05;84.04;95675.78;4310956;32;20196;-62
2022/10/10 09:57:42;;;;;;;2.67;2.47;;;;;;;16.16;83.87;95677.00;4328320;32;20285;-62
2022/10/10 10:00:27;;;;;;;1.13;1.07;;;;;;;16.29;83.25;95676.03;4316996;32;20189;-62
2022/10/10 10:03:16;;;;;;;1.27;1.17;;;;;;;16.37;82.89;95683.25;4340602;32;20177;-62
2022/10/10 10:06:02;;;;;;;0.47;0.40;;;;;;;16.46;82.79;95680.53;4329167;32;20189;-62
2022/10/10 10:08:32;;;;;;;0.93;0.93;;;;;;;16.58;82.46;95677.19;4334690;32;20239;-62
2022/10/10 10:11:03;;;;;;;0.53;0.53;;;;;;;16.61;81.92;95677.31;4327477;32;20221;-62
2022/10/10 10:13:52;;;;;;;0.40;0.40;;;;;;;16.58;82.06;95671.81;4299249;33;20198;-62
2022/10/10 10:16:19;;;;;;;0.83;0.60;;;;;;;16.68;81.10;95676.81;4315926;33;20242;-63
2022/10/10 10:18:48;;;;;;;1.73;1.10;;;;;;;16.82;80.15;95669.38;4308158;33;20177;-63
2022/10/10 10:21:23;;;;;;;0.67;0.67;;;;;;;16.83;81.56;95673.63;4313190;33;20193;-62
2022/10/10 10:24:20;;;;;;;0.80;0.80;;;;;;;16.96;79.64;95677.94;4312592;32;20239;-62
2022/10/10 10:26:47;;;;;;;0.40;0.40;;;;;;;16.97;80.59;95679.50;4312493;33;20197;-62
2022/10/10 10:29:33;;;;;;;0.90;0.90;;;;;;;16.94;80.80;95682.06;4292089;33;20261;-62
2022/10/10 10:32:39;;;;;;;4.70;0.93;;;;;;;16.94;81.80;95674.00;4303930;33;20209;-62
2022/10/10 10:35:39;;;;;;;0.80;0.80;;;;;;;16.97;80.64;95674.16;4258400;33;20205;-62
2022/10/10 10:38:49;;;;;;;0.20;0.20;;;;;;;17.07;81.99;95673.75;4221985;33;20371;-63
2022/10/10 10:41:43;;;;;;;3.20;0.87;;;;;;;17.13;80.45;95671.69;4275024;33;20194;-62
2022/10/10 10:44:31;;;;;;;0.40;0.40;;;;;;;17.23;80.02;95667.84;4274111;33;20202;-62
2022/10/10 10:47:21;;;;;;;0.83;0.83;;;;;;;17.18;80.84;95672.28;4305657;33;20189;-62
2022/10/10 10:50:31;;;;;;;0.53;0.53;;;;;;;17.24;80.63;95666.72;4311724;33;20211;-62
2022/10/10 10:53:47;;;;;;;0.70;0.70;;;;;;;17.21;80.55;95672.75;4299835;32;20321;-62
2022/10/10 10:56:19;;;;;;;0.67;0.67;;;;;;;17.24;81.06;95666.72;4317695;32;20312;-63
2022/10/10 10:59:18;;;;;;;0.90;0.90;;;;;;;17.32;79.35;95663.19;4301381;33;20198;-62
2022/10/10 11:02:19;;;;;;;0.47;0.47;;;;;;;17.28;80.13;95660.38;4301577;33;20198;-62
2022/10/10 11:05:29;;;;;;;1.47;1.37;;;;;;;17.22;80.96;95661.69;4312938;32;20279;-63
2022/10/10 11:08:27;;;;;;;0.67;0.67;;;;;;;17.30;80.64;95660.03;4305398;33;20182;-63
2022/10/10 11:11:31;;;;;;;2.20;0.70;;;;;;;17.36;80.87;95661.41;4310185;33;20196;-62
2022/10/10 11:14:35;;;;;;;1.73;1.37;;;;;;;17.50;78.72;95665.41;4309717;33;20265;-63
2022/10/10 11:17:20;;;;;;;0.60;0.57;;;;;;;17.48;79.77;95656.09;4319601;32;20318;-62
2022/10/10 11:20:32;;;;;;;1.70;1.20;;;;;;;17.45;79.90;95654.09;4343500;32;20185;-62
2022/10/10 11:23:35;;;;;;;0.80;0.80;;;;;;;17.39;81.04;95648.16;4336703;32;20200;-62
2022/10/10 11:26:20;;;;;;;0.27;0.27;;;;;;;17.51;79.60;95648.19;4292184;32;20342;-62
2022/10/10 11:29:24;;;;;;;0.70;0.70;;;;;;;17.51;81.21;95647.41;4343616;32;20194;-62
2022/10/10 11:32:16;;;;;;;0.40;0.40;;;;;;;17.49;80.67;95646.94;4265482;33;20174;-62
2022/10/10 11:35:17;;;;;;;1.10;0.80;;;;;;;17.57;81.03;95646.09;4314993;33;20198;-63
2022/10/10 11:37:51;;;;;;;0.30;0.30;;;;;;;17.51;80.53;95647.41;4326774;32;20242;-62
2022/10/10 11:40:27;;;;;;;0.67;0.67;;;;;;;17.55;79.64;95642.16;4300903;33;20196;-62
2022/10/10 11:43:01;;;;;;;19.87;1.03;;;;;;;17.62;79.87;95645.09;4332298;32;20208;-62
2022/10/10 11:45:36;;;;;;;0.43;0.43;;;;;;;17.67;79.31;95647.59;4312096;33;20206;-62
2022/10/10 11:48:29;;;;;;;0.30;0.30;;;;;;;17.67;79.29;95650.28;4279322;33;20217;-62
2022/10/10 11:51:19;;;;;;;0.77;0.77;;;;;;;17.70;79.60;95644.25;4335362;32;20207;-62
2022/10/10 11:53:51;;;;;;;0.33;0.30;;;;;;;17.79;78.69;95645.75;4300723;33;20191;-63
2022/10/10 11:56:28;;;;;;;4.60;0.63;;;;;;;17.84;78.74;95653.59;4322960;32;20193;-63
2022/10/10 11:59:29;;;;;;;0.80;0.53;;;;;;;17.87;79.20;95648.69;4305373;33;20264;-62
2022/10/10 12:02:00;;;;;;;0.60;0.60;;;;;;;17.89;78.93;95641.84;4272674;33;20204;-62